sensor_id;sensor_type;location;lat;lon;timestamp;pressure;altitude;pressure_sealevel;temperature;humidity
14232;BME280;7200;52.194;9.900;2023-04-25T00:01:10;99529.16;;;8.78;100.00
14232;BME280;7200;52.194;9.900;2023-04-25T00:03:38;99520.91;;;8.67;100.00
14232;BME280;7200;52.194;9.900;2023-04-25T00:06:04;99479.13;;;8.18;100.00
14232;BME280;7200;52.194;9.900;2023-04-25T00:08:29;99525.59;;;8.58;100.00
14232;BME280;7200;52.194;9.900;2023-04-25T00:10:56;99504.38;;;8.43;100.00
14232;BME280;7200;52.194;9.900;2023-04-25T00:13:21;99500.09;;;7.97;100.00
14232;BME280;7200;52.194;9.900;2023-04-25T00:15:47;99547.03;;;8.49;100.00
14232;BME280;7200;52.194;9.900;2023-04-25T00:18:13;99502.97;;;7.91;100.00
14232;BME280;7200;52.194;9.900;2023-04-25T00:20:38;99528.34;;;8.13;100.00
14232;BME280;7200;52.194;9.900;2023-04-25T00:23:04;99529.16;;;8.15;100.00
14232;BME280;7200;52.194;9.900;2023-04-25T00:25:30;99526.44;;;8.38;100.00
14232;BME280;7200;52.194;9.900;2023-04-25T00:27:55;99537.31;;;8.51;100.00
14232;BME280;7200;52.194;9.900;2023-04-25T00:30:20;99487.16;;;7.71;100.00
14232;BME280;7200;52.194;9.900;2023-04-25T00:32:46;99504.00;;;7.87;100.00
14232;BME280;7200;52.194;9.900;2023-04-25T00:35:11;99475.66;;;7.51;100.00
14232;BME280;7200;52.194;9.900;2023-04-25T00:37:36;99564.88;;;8.41;100.00
14232;BME280;7200;52.194;9.900;2023-04-25T00:40:04;99531.34;;;8.04;100.00
14232;BME280;7200;52.194;9.900;2023-04-25T00:42:31;99564.56;;;8.27;100.00
14232;BME280;7200;52.194;9.900;2023-04-25T00:44:58;99555.25;;;8.62;100.00
14232;BME280;7200;52.194;9.900;2023-04-25T00:47:24;99547.69;;;8.54;100.00
14232;BME280;7200;52.194;9.900;2023-04-25T00:49:50;99518.25;;;8.24;100.00
14232;BME280;7200;52.194;9.900;2023-04-25T00:52:15;99511.59;;;8.15;100.00
14232;BME280;7200;52.194;9.900;2023-04-25T00:54:40;99521.28;;;8.15;100.00
14232;BME280;7200;52.194;9.900;2023-04-25T00:57:06;99511.28;;;8.03;100.00
14232;BME280;7200;52.194;9.900;2023-04-25T00:59:31;99535.81;;;8.24;100.00
14232;BME280;7200;52.194;9.900;2023-04-25T01:01:57;99542.81;;;8.45;100.00
14232;BME280;7200;52.194;9.900;2023-04-25T01:04:23;99523.16;;;8.11;100.00
14232;BME280;7200;52.194;9.900;2023-04-25T01:06:48;99532.63;;;8.15;100.00
14232;BME280;7200;52.194;9.900;2023-04-25T01:09:14;99527.69;;;8.08;100.00
14232;BME280;7200;52.194;9.900;2023-04-25T01:11:39;99551.63;;;8.22;100.00
14232;BME280;7200;52.194;9.900;2023-04-25T01:14:05;99548.88;;;8.25;100.00
14232;BME280;7200;52.194;9.900;2023-04-25T01:16:31;99529.66;;;8.03;100.00
14232;BME280;7200;52.194;9.900;2023-04-25T01:18:56;99533.03;;;8.06;100.00
14232;BME280;7200;52.194;9.900;2023-04-25T01:21:22;99544.59;;;8.23;100.00
14232;BME280;7200;52.194;9.900;2023-04-25T01:23:47;99547.06;;;8.27;100.00
14232;BME280;7200;52.194;9.900;2023-04-25T01:26:13;99551.31;;;8.30;100.00
14232;BME280;7200;52.194;9.900;2023-04-25T01:28:39;99541.50;;;8.13;100.00
14232;BME280;7200;52.194;9.900;2023-04-25T01:31:08;99528.78;;;8.02;100.00
14232;BME280;7200;52.194;9.900;2023-04-25T01:33:34;99550.38;;;8.10;100.00
14232;BME280;7200;52.194;9.900;2023-04-25T01:36:00;99532.78;;;7.90;100.00
14232;BME280;7200;52.194;9.900;2023-04-25T01:38:25;99531.28;;;7.83;100.00
14232;BME280;7200;52.194;9.900;2023-04-25T01:40:51;99575.03;;;8.28;100.00
14232;BME280;7200;52.194;9.900;2023-04-25T01:43:17;99570.94;;;8.21;100.00
14232;BME280;7200;52.194;9.900;2023-04-25T01:45:42;99561.25;;;8.23;100.00
14232;BME280;7200;52.194;9.900;2023-04-25T01:48:09;99582.69;;;8.34;100.00
14232;BME280;7200;52.194;9.900;2023-04-25T01:50:34;99571.88;;;8.20;100.00
14232;BME280;7200;52.194;9.900;2023-04-25T01:53:00;99585.38;;;8.33;100.00
14232;BME280;7200;52.194;9.900;2023-04-25T01:55:27;99570.13;;;8.19;100.00
14232;BME280;7200;52.194;9.900;2023-04-25T01:57:52;99583.59;;;8.11;100.00
14232;BME280;7200;52.194;9.900;2023-04-25T02:00:18;99583.00;;;8.05;100.00
14232;BME280;7200;52.194;9.900;2023-04-25T02:02:43;99594.53;;;8.23;100.00
14232;BME280;7200;52.194;9.900;2023-04-25T02:05:08;99587.75;;;8.17;100.00
14232;BME280;7200;52.194;9.900;2023-04-25T02:07:34;99595.47;;;8.22;100.00
14232;BME280;7200;52.194;9.900;2023-04-25T02:10:00;99589.41;;;8.19;100.00
14232;BME280;7200;52.194;9.900;2023-04-25T02:12:27;99597.94;;;8.25;100.00
14232;BME280;7200;52.194;9.900;2023-04-25T02:14:52;99596.19;;;8.25;100.00
14232;BME280;7200;52.194;9.900;2023-04-25T02:17:17;99608.41;;;8.48;100.00
14232;BME280;7200;52.194;9.900;2023-04-25T02:19:43;99599.75;;;8.46;100.00
14232;BME280;7200;52.194;9.900;2023-04-25T02:22:08;99574.00;;;8.10;100.00
14232;BME280;7200;52.194;9.900;2023-04-25T02:24:34;99591.91;;;8.23;100.00
14232;BME280;7200;52.194;9.900;2023-04-25T02:27:00;99585.41;;;8.09;100.00
14232;BME280;7200;52.194;9.900;2023-04-25T02:29:25;99602.91;;;8.10;100.00
14232;BME280;7200;52.194;9.900;2023-04-25T02:31:50;99589.66;;;7.91;100.00
14232;BME280;7200;52.194;9.900;2023-04-25T02:34:16;99606.19;;;7.93;100.00
14232;BME280;7200;52.194;9.900;2023-04-25T02:36:41;99606.91;;;7.75;100.00
14232;BME280;7200;52.194;9.900;2023-04-25T02:39:06;99624.94;;;7.84;100.00
14232;BME280;7200;52.194;9.900;2023-04-25T02:41:32;99628.69;;;7.77;100.00
14232;BME280;7200;52.194;9.900;2023-04-25T02:43:57;99635.88;;;7.72;100.00
14232;BME280;7200;52.194;9.900;2023-04-25T02:46:22;99633.16;;;7.75;100.00
14232;BME280;7200;52.194;9.900;2023-04-25T02:48:47;99637.94;;;7.64;100.00
14232;BME280;7200;52.194;9.900;2023-04-25T02:51:13;99649.53;;;7.58;100.00
14232;BME280;7200;52.194;9.900;2023-04-25T02:53:38;99650.63;;;7.52;100.00
14232;BME280;7200;52.194;9.900;2023-04-25T02:56:04;99670.31;;;7.64;100.00
14232;BME280;7200;52.194;9.900;2023-04-25T02:58:30;99657.41;;;7.58;100.00
14232;BME280;7200;52.194;9.900;2023-04-25T03:00:55;99684.53;;;7.82;100.00
14232;BME280;7200;52.194;9.900;2023-04-25T03:03:20;99695.16;;;7.79;100.00
14232;BME280;7200;52.194;9.900;2023-04-25T03:05:50;99705.69;;;7.77;100.00
14232;BME280;7200;52.194;9.900;2023-04-25T03:08:16;99681.03;;;7.58;100.00
14232;BME280;7200;52.194;9.900;2023-04-25T03:10:41;99677.03;;;7.71;100.00
14232;BME280;7200;52.194;9.900;2023-04-25T03:13:07;99694.53;;;7.72;100.00
14232;BME280;7200;52.194;9.900;2023-04-25T03:15:32;99703.53;;;7.89;100.00
14232;BME280;7200;52.194;9.900;2023-04-25T03:17:58;99667.69;;;7.64;100.00
14232;BME280;7200;52.194;9.900;2023-04-25T03:20:23;99677.63;;;7.56;100.00
14232;BME280;7200;52.194;9.900;2023-04-25T03:22:48;99678.41;;;7.58;100.00
14232;BME280;7200;52.194;9.900;2023-04-25T03:25:14;99686.81;;;7.68;100.00
14232;BME280;7200;52.194;9.900;2023-04-25T03:27:39;99670.75;;;7.52;100.00
14232;BME280;7200;52.194;9.900;2023-04-25T03:30:05;99675.28;;;7.48;100.00
14232;BME280;7200;52.194;9.900;2023-04-25T03:32:31;99665.09;;;7.39;100.00
14232;BME280;7200;52.194;9.900;2023-04-25T03:34:57;99671.03;;;7.44;100.00
14232;BME280;7200;52.194;9.900;2023-04-25T03:37:22;99665.91;;;7.41;100.00
14232;BME280;7200;52.194;9.900;2023-04-25T03:39:47;99668.66;;;7.36;100.00
14232;BME280;7200;52.194;9.900;2023-04-25T03:42:13;99689.41;;;7.44;100.00
14232;BME280;7200;52.194;9.900;2023-04-25T03:44:38;99702.19;;;7.53;100.00
14232;BME280;7200;52.194;9.900;2023-04-25T03:47:03;99704.50;;;7.37;100.00
14232;BME280;7200;52.194;9.900;2023-04-25T03:49:28;99710.56;;;7.39;100.00
14232;BME280;7200;52.194;9.900;2023-04-25T03:51:54;99722.66;;;7.44;100.00
14232;BME280;7200;52.194;9.900;2023-04-25T03:54:19;99725.00;;;7.51;100.00
14232;BME280;7200;52.194;9.900;2023-04-25T03:56:45;99705.84;;;6.99;100.00
14232;BME280;7200;52.194;9.900;2023-04-25T03:59:10;99724.22;;;7.74;100.00
14232;BME280;7200;52.194;9.900;2023-04-25T04:01:35;99731.66;;;7.62;100.00
14232;BME280;7200;52.194;9.900;2023-04-25T04:04:01;99735.78;;;7.69;100.00
14232;BME280;7200;52.194;9.900;2023-04-25T04:06:26;99733.69;;;7.78;100.00
14232;BME280;7200;52.194;9.900;2023-04-25T04:08:51;99743.91;;;7.86;100.00
14232;BME280;7200;52.194;9.900;2023-04-25T04:11:17;99688.88;;;7.59;100.00
14232;BME280;7200;52.194;9.900;2023-04-25T04:13:42;99754.59;;;8.05;100.00
14232;BME280;7200;52.194;9.900;2023-04-25T04:16:07;99714.84;;;7.67;100.00
14232;BME280;7200;52.194;9.900;2023-04-25T04:18:33;99719.75;;;7.76;100.00
14232;BME280;7200;52.194;9.900;2023-04-25T04:20:58;99717.41;;;7.18;100.00
14232;BME280;7200;52.194;9.900;2023-04-25T04:23:24;99736.66;;;7.93;100.00
14232;BME280;7200;52.194;9.900;2023-04-25T04:25:49;99722.19;;;7.81;100.00
14232;BME280;7200;52.194;9.900;2023-04-25T04:28:15;99747.75;;;8.01;100.00
14232;BME280;7200;52.194;9.900;2023-04-25T04:30:41;99722.44;;;8.22;100.00
14232;BME280;7200;52.194;9.900;2023-04-25T04:33:08;99732.88;;;8.47;100.00
14232;BME280;7200;52.194;9.900;2023-04-25T04:35:36;99720.72;;;8.45;100.00
14232;BME280;7200;52.194;9.900;2023-04-25T04:38:01;99709.75;;;8.10;100.00
14232;BME280;7200;52.194;9.900;2023-04-25T04:40:26;99717.56;;;8.35;100.00
14232;BME280;7200;52.194;9.900;2023-04-25T04:42:52;99713.94;;;8.37;100.00
14232;BME280;7200;52.194;9.900;2023-04-25T04:45:18;99675.78;;;7.82;100.00
14232;BME280;7200;52.194;9.900;2023-04-25T04:47:43;99686.97;;;7.38;100.00
14232;BME280;7200;52.194;9.900;2023-04-25T04:50:10;99734.00;;;8.64;100.00
14232;BME280;7200;52.194;9.900;2023-04-25T04:52:36;99720.00;;;8.63;100.00
14232;BME280;7200;52.194;9.900;2023-04-25T04:55:03;99732.53;;;8.79;100.00
14232;BME280;7200;52.194;9.900;2023-04-25T04:57:29;99713.06;;;8.83;100.00
14232;BME280;7200;52.194;9.900;2023-04-25T04:59:54;99700.50;;;8.69;100.00
14232;BME280;7200;52.194;9.900;2023-04-25T05:02:20;99696.59;;;8.57;100.00
14232;BME280;7200;52.194;9.900;2023-04-25T05:04:45;99707.22;;;8.76;100.00
14232;BME280;7200;52.194;9.900;2023-04-25T05:07:11;99695.22;;;8.69;100.00
14232;BME280;7200;52.194;9.900;2023-04-25T05:09:37;99680.88;;;8.55;100.00
14232;BME280;7200;52.194;9.900;2023-04-25T05:12:02;99695.28;;;8.67;100.00
14232;BME280;7200;52.194;9.900;2023-04-25T05:14:28;99692.66;;;8.67;100.00
14232;BME280;7200;52.194;9.900;2023-04-25T05:16:53;99697.50;;;8.56;100.00
14232;BME280;7200;52.194;9.900;2023-04-25T05:19:18;99696.34;;;8.63;100.00
14232;BME280;7200;52.194;9.900;2023-04-25T05:21:44;99695.28;;;8.67;100.00
14232;BME280;7200;52.194;9.900;2023-04-25T05:24:09;99689.72;;;8.53;100.00
14232;BME280;7200;52.194;9.900;2023-04-25T05:26:34;99699.69;;;8.67;100.00
14232;BME280;7200;52.194;9.900;2023-04-25T05:29:00;99705.50;;;8.75;100.00
14232;BME280;7200;52.194;9.900;2023-04-25T05:31:25;99676.47;;;8.56;100.00
14232;BME280;7200;52.194;9.900;2023-04-25T05:33:51;99712.81;;;8.89;100.00
14232;BME280;7200;52.194;9.900;2023-04-25T05:36:18;99719.28;;;9.02;100.00
14232;BME280;7200;52.194;9.900;2023-04-25T05:38:43;99697.69;;;8.94;100.00
14232;BME280;7200;52.194;9.900;2023-04-25T05:41:09;99660.22;;;8.46;100.00
14232;BME280;7200;52.194;9.900;2023-04-25T05:43:34;99686.28;;;8.51;100.00
14232;BME280;7200;52.194;9.900;2023-04-25T05:46:00;99713.00;;;8.84;100.00
14232;BME280;7200;52.194;9.900;2023-04-25T05:48:25;99698.91;;;8.65;100.00
14232;BME280;7200;52.194;9.900;2023-04-25T05:50:50;99707.69;;;8.64;100.00
14232;BME280;7200;52.194;9.900;2023-04-25T05:53:17;99695.66;;;8.58;100.00
14232;BME280;7200;52.194;9.900;2023-04-25T05:55:42;99683.34;;;8.58;100.00
14232;BME280;7200;52.194;9.900;2023-04-25T05:58:08;99693.56;;;8.66;100.00
14232;BME280;7200;52.194;9.900;2023-04-25T06:00:33;99653.78;;;8.53;100.00
14232;BME280;7200;52.194;9.900;2023-04-25T06:02:59;99689.59;;;8.78;100.00
14232;BME280;7200;52.194;9.900;2023-04-25T06:05:24;99684.25;;;8.80;100.00
14232;BME280;7200;52.194;9.900;2023-04-25T06:07:50;99696.16;;;9.10;100.00
14232;BME280;7200;52.194;9.900;2023-04-25T06:10:15;99658.25;;;8.94;100.00
14232;BME280;7200;52.194;9.900;2023-04-25T06:12:40;99646.66;;;8.98;100.00
14232;BME280;7200;52.194;9.900;2023-04-25T06:15:06;99649.69;;;8.89;100.00
14232;BME280;7200;52.194;9.900;2023-04-25T06:17:32;99639.44;;;8.83;100.00
14232;BME280;7200;52.194;9.900;2023-04-25T06:19:57;99618.50;;;8.59;100.00
14232;BME280;7200;52.194;9.900;2023-04-25T06:22:23;99628.66;;;8.68;100.00
14232;BME280;7200;52.194;9.900;2023-04-25T06:24:48;99669.28;;;9.02;100.00
14232;BME280;7200;52.194;9.900;2023-04-25T06:27:13;99625.38;;;8.84;100.00
14232;BME280;7200;52.194;9.900;2023-04-25T06:29:38;99593.38;;;8.52;100.00
14232;BME280;7200;52.194;9.900;2023-04-25T06:32:04;99623.91;;;8.76;100.00
14232;BME280;7200;52.194;9.900;2023-04-25T06:34:30;99594.91;;;8.57;100.00
14232;BME280;7200;52.194;9.900;2023-04-25T06:36:55;99595.75;;;8.58;100.00
14232;BME280;7200;52.194;9.900;2023-04-25T06:39:20;99616.06;;;8.75;100.00
14232;BME280;7200;52.194;9.900;2023-04-25T06:41:48;99597.09;;;8.68;100.00
14232;BME280;7200;52.194;9.900;2023-04-25T06:44:13;99592.66;;;8.48;100.00
14232;BME280;7200;52.194;9.900;2023-04-25T06:46:39;99614.25;;;8.55;100.00
14232;BME280;7200;52.194;9.900;2023-04-25T06:49:04;99608.63;;;8.64;100.00
14232;BME280;7200;52.194;9.900;2023-04-25T06:51:30;99623.38;;;8.68;100.00
14232;BME280;7200;52.194;9.900;2023-04-25T06:53:55;99643.97;;;9.00;100.00
14232;BME280;7200;52.194;9.900;2023-04-25T06:56:21;99661.88;;;9.32;100.00
14232;BME280;7200;52.194;9.900;2023-04-25T06:58:46;99636.34;;;9.14;100.00
14232;BME280;7200;52.194;9.900;2023-04-25T07:01:11;99627.66;;;9.32;100.00
14232;BME280;7200;52.194;9.900;2023-04-25T07:03:37;99641.94;;;9.66;100.00
14232;BME280;7200;52.194;9.900;2023-04-25T07:06:03;99610.97;;;9.71;100.00
14232;BME280;7200;52.194;9.900;2023-04-25T07:08:29;99612.31;;;9.61;100.00
14232;BME280;7200;52.194;9.900;2023-04-25T07:10:54;99577.78;;;9.48;100.00
14232;BME280;7200;52.194;9.900;2023-04-25T07:13:19;99571.94;;;9.42;100.00
14232;BME280;7200;52.194;9.900;2023-04-25T07:15:45;99478.94;;;9.03;100.00
14232;BME280;7200;52.194;9.900;2023-04-25T07:18:12;99528.78;;;9.46;100.00
14232;BME280;7200;52.194;9.900;2023-04-25T07:20:37;99463.22;;;9.21;100.00
14232;BME280;7200;52.194;9.900;2023-04-25T07:23:03;99525.97;;;9.30;100.00
14232;BME280;7200;52.194;9.900;2023-04-25T07:25:28;99523.16;;;9.34;100.00
14232;BME280;7200;52.194;9.900;2023-04-25T07:27:53;99413.56;;;7.52;100.00
14232;BME280;7200;52.194;9.900;2023-04-25T07:30:19;99841.09;;;10.89;100.00
14232;BME280;7200;52.194;9.900;2023-04-25T07:32:44;99419.47;;;12.04;100.00
14232;BME280;7200;52.194;9.900;2023-04-25T07:35:10;99367.66;;;11.85;100.00
14232;BME280;7200;52.194;9.900;2023-04-25T07:37:35;99532.13;;;13.82;100.00
14232;BME280;7200;52.194;9.900;2023-04-25T07:40:04;99497.28;;;13.18;100.00
14232;BME280;7200;52.194;9.900;2023-04-25T07:42:30;99791.56;;;15.16;100.00
14232;BME280;7200;52.194;9.900;2023-04-25T07:44:55;99551.16;;;14.83;100.00
14232;BME280;7200;52.194;9.900;2023-04-25T07:47:21;99497.41;;;15.05;100.00
14232;BME280;7200;52.194;9.900;2023-04-25T07:49:46;99486.34;;;15.11;100.00
14232;BME280;7200;52.194;9.900;2023-04-25T07:52:11;99214.97;;;13.81;99.74
14232;BME280;7200;52.194;9.900;2023-04-25T07:54:37;99366.03;;;14.34;98.82
14232;BME280;7200;52.194;9.900;2023-04-25T07:57:02;99454.72;;;14.17;100.00
14232;BME280;7200;52.194;9.900;2023-04-25T07:59:28;99191.69;;;11.53;100.00
14232;BME280;7200;52.194;9.900;2023-04-25T08:01:53;99481.06;;;11.90;100.00
14232;BME280;7200;52.194;9.900;2023-04-25T08:04:18;99378.34;;;11.06;100.00
14232;BME280;7200;52.194;9.900;2023-04-25T08:06:43;99509.78;;;11.80;100.00
14232;BME280;7200;52.194;9.900;2023-04-25T08:09:09;99497.66;;;11.44;100.00
14232;BME280;7200;52.194;9.900;2023-04-25T08:11:35;99682.97;;;13.43;100.00
14232;BME280;7200;52.194;9.900;2023-04-25T08:14:00;99406.56;;;13.29;100.00
14232;BME280;7200;52.194;9.900;2023-04-25T08:16:25;99084.13;;;11.83;100.00
14232;BME280;7200;52.194;9.900;2023-04-25T08:18:51;99557.00;;;13.38;100.00
14232;BME280;7200;52.194;9.900;2023-04-25T08:21:16;99496.75;;;13.69;100.00
14232;BME280;7200;52.194;9.900;2023-04-25T08:23:41;99489.69;;;14.49;100.00
14232;BME280;7200;52.194;9.900;2023-04-25T08:26:07;99396.41;;;14.68;99.32
14232;BME280;7200;52.194;9.900;2023-04-25T08:28:32;99501.53;;;14.84;97.67
14232;BME280;7200;52.194;9.900;2023-04-25T08:30:57;99421.44;;;16.12;90.94
14232;BME280;7200;52.194;9.900;2023-04-25T08:33:23;99519.47;;;17.45;83.20
14232;BME280;7200;52.194;9.900;2023-04-25T08:35:48;99403.41;;;17.19;78.80
14232;BME280;7200;52.194;9.900;2023-04-25T08:38:13;99386.88;;;17.36;75.13
14232;BME280;7200;52.194;9.900;2023-04-25T08:40:39;98659.66;;;9.95;92.57
14232;BME280;7200;52.194;9.900;2023-04-25T08:43:06;99090.06;;;9.92;100.00
14232;BME280;7200;52.194;9.900;2023-04-25T08:45:41;99274.56;;;10.08;100.00
14232;BME280;7200;52.194;9.900;2023-04-25T08:48:13;99320.09;;;9.94;100.00
14232;BME280;7200;52.194;9.900;2023-04-25T08:50:52;99363.03;;;10.47;100.00
14232;BME280;7200;52.194;9.900;2023-04-25T08:53:38;99322.78;;;10.44;100.00
14232;BME280;7200;52.194;9.900;2023-04-25T08:56:07;99285.13;;;10.24;100.00
14232;BME280;7200;52.194;9.900;2023-04-25T08:58:34;99308.25;;;10.19;100.00
14232;BME280;7200;52.194;9.900;2023-04-25T09:01:00;99300.75;;;10.11;100.00
14232;BME280;7200;52.194;9.900;2023-04-25T09:03:26;99419.63;;;10.58;100.00
14232;BME280;7200;52.194;9.900;2023-04-25T09:05:52;99339.84;;;10.70;100.00
14232;BME280;7200;52.194;9.900;2023-04-25T09:08:17;99279.31;;;10.35;100.00
14232;BME280;7200;52.194;9.900;2023-04-25T09:10:43;99287.47;;;10.13;100.00
14232;BME280;7200;52.194;9.900;2023-04-25T09:13:11;99344.69;;;10.11;100.00
14232;BME280;7200;52.194;9.900;2023-04-25T09:15:50;99407.06;;;10.28;100.00
14232;BME280;7200;52.194;9.900;2023-04-25T09:18:27;99406.78;;;9.82;100.00
14232;BME280;7200;52.194;9.900;2023-04-25T09:21:14;99407.06;;;9.58;100.00
14232;BME280;7200;52.194;9.900;2023-04-25T09:23:47;99482.28;;;9.45;100.00
14232;BME280;7200;52.194;9.900;2023-04-25T09:26:17;99517.72;;;9.57;100.00
14232;BME280;7200;52.194;9.900;2023-04-25T09:28:43;99533.25;;;9.63;100.00
14232;BME280;7200;52.194;9.900;2023-04-25T09:31:10;99536.38;;;9.52;100.00
14232;BME280;7200;52.194;9.900;2023-04-25T09:33:37;99545.47;;;9.45;100.00
14232;BME280;7200;52.194;9.900;2023-04-25T09:36:05;99565.81;;;9.41;100.00
14232;BME280;7200;52.194;9.900;2023-04-25T09:38:32;99644.38;;;9.90;100.00
14232;BME280;7200;52.194;9.900;2023-04-25T09:40:58;99620.59;;;10.28;100.00
14232;BME280;7200;52.194;9.900;2023-04-25T09:43:24;99517.72;;;10.12;100.00
14232;BME280;7200;52.194;9.900;2023-04-25T09:45:51;99439.25;;;10.00;100.00
14232;BME280;7200;52.194;9.900;2023-04-25T09:48:19;99507.66;;;10.38;100.00
14232;BME280;7200;52.194;9.900;2023-04-25T09:50:47;99464.56;;;10.39;100.00
14232;BME280;7200;52.194;9.900;2023-04-25T09:53:28;99400.09;;;10.27;100.00
14232;BME280;7200;52.194;9.900;2023-04-25T09:55:55;99475.56;;;10.64;100.00
14232;BME280;7200;52.194;9.900;2023-04-25T09:58:24;99506.09;;;10.86;100.00
14232;BME280;7200;52.194;9.900;2023-04-25T10:00:51;99525.13;;;11.08;100.00
14232;BME280;7200;52.194;9.900;2023-04-25T10:03:17;99405.25;;;10.63;99.67
14232;BME280;7200;52.194;9.900;2023-04-25T10:05:44;99414.28;;;10.75;99.73
14232;BME280;7200;52.194;9.900;2023-04-25T10:08:11;99360.69;;;10.59;98.07
14232;BME280;7200;52.194;9.900;2023-04-25T10:10:38;99325.16;;;10.32;97.62
14232;BME280;7200;52.194;9.900;2023-04-25T10:13:05;99444.75;;;10.65;99.84
14232;BME280;7200;52.194;9.900;2023-04-25T10:15:34;99512.41;;;10.99;100.00
14232;BME280;7200;52.194;9.900;2023-04-25T10:18:01;99433.78;;;10.73;100.00
14232;BME280;7200;52.194;9.900;2023-04-25T10:20:27;99398.91;;;10.34;100.00
14232;BME280;7200;52.194;9.900;2023-04-25T10:22:54;99585.56;;;10.97;100.00
14232;BME280;7200;52.194;9.900;2023-04-25T10:25:22;99607.41;;;11.34;100.00
14232;BME280;7200;52.194;9.900;2023-04-25T10:27:51;99533.75;;;11.28;100.00
14232;BME280;7200;52.194;9.900;2023-04-25T10:30:17;99581.44;;;11.58;100.00
14232;BME280;7200;52.194;9.900;2023-04-25T10:32:44;99589.53;;;11.55;100.00
14232;BME280;7200;52.194;9.900;2023-04-25T10:35:18;99589.47;;;11.73;100.00
14232;BME280;7200;52.194;9.900;2023-04-25T10:38:13;99471.59;;;11.54;98.22
14232;BME280;7200;52.194;9.900;2023-04-25T10:40:39;99432.59;;;11.27;98.11
14232;BME280;7200;52.194;9.900;2023-04-25T10:46:01;99467.47;;;11.01;99.22
14232;BME280;7200;52.194;9.900;2023-04-25T10:48:30;99510.75;;;11.14;100.00
14232;BME280;7200;52.194;9.900;2023-04-25T10:51:16;99520.44;;;10.80;100.00
14232;BME280;7200;52.194;9.900;2023-04-25T10:53:46;99525.56;;;10.66;100.00
14232;BME280;7200;52.194;9.900;2023-04-25T10:56:21;99484.41;;;10.28;100.00
14232;BME280;7200;52.194;9.900;2023-04-25T10:58:48;99596.97;;;10.63;100.00
14232;BME280;7200;52.194;9.900;2023-04-25T11:01:14;99591.13;;;10.56;100.00
14232;BME280;7200;52.194;9.900;2023-04-25T11:03:41;99623.28;;;10.64;100.00
14232;BME280;7200;52.194;9.900;2023-04-25T11:06:18;99597.19;;;10.58;100.00
14232;BME280;7200;52.194;9.900;2023-04-25T11:08:51;99633.19;;;10.77;100.00
14232;BME280;7200;52.194;9.900;2023-04-25T11:11:17;99648.66;;;10.84;100.00
14232;BME280;7200;52.194;9.900;2023-04-25T11:13:43;99678.09;;;11.12;100.00
14232;BME280;7200;52.194;9.900;2023-04-25T11:16:09;99689.72;;;11.25;100.00
14232;BME280;7200;52.194;9.900;2023-04-25T11:18:34;99548.44;;;10.83;100.00
14232;BME280;7200;52.194;9.900;2023-04-25T11:21:00;99550.50;;;10.78;100.00
14232;BME280;7200;52.194;9.900;2023-04-25T11:23:26;99560.16;;;10.77;100.00
14232;BME280;7200;52.194;9.900;2023-04-25T11:25:52;99543.59;;;10.58;100.00
14232;BME280;7200;52.194;9.900;2023-04-25T11:28:21;99602.00;;;10.85;100.00
14232;BME280;7200;52.194;9.900;2023-04-25T11:30:49;99579.22;;;10.66;100.00
14232;BME280;7200;52.194;9.900;2023-04-25T11:33:16;99556.31;;;10.49;100.00
14232;BME280;7200;52.194;9.900;2023-04-25T11:35:41;99539.34;;;10.55;100.00
14232;BME280;7200;52.194;9.900;2023-04-25T11:38:06;99581.13;;;10.80;100.00
14232;BME280;7200;52.194;9.900;2023-04-25T11:40:32;99576.78;;;10.44;100.00
14232;BME280;7200;52.194;9.900;2023-04-25T11:42:59;99631.25;;;10.63;100.00
14232;BME280;7200;52.194;9.900;2023-04-25T11:45:25;99581.81;;;10.49;100.00
14232;BME280;7200;52.194;9.900;2023-04-25T11:47:51;99544.06;;;10.48;100.00
14232;BME280;7200;52.194;9.900;2023-04-25T11:50:16;99630.47;;;11.13;100.00
14232;BME280;7200;52.194;9.900;2023-04-25T11:52:44;99518.38;;;10.52;100.00
14232;BME280;7200;52.194;9.900;2023-04-25T11:55:13;99588.75;;;10.69;100.00
14232;BME280;7200;52.194;9.900;2023-04-25T11:57:39;99543.38;;;10.26;100.00
14232;BME280;7200;52.194;9.900;2023-04-25T12:00:16;99606.88;;;10.21;100.00
14232;BME280;7200;52.194;9.900;2023-04-25T12:02:47;99652.41;;;10.25;100.00
14232;BME280;7200;52.194;9.900;2023-04-25T12:05:14;99667.59;;;10.39;100.00
14232;BME280;7200;52.194;9.900;2023-04-25T12:07:43;99637.88;;;10.16;100.00
14232;BME280;7200;52.194;9.900;2023-04-25T12:10:11;99657.53;;;9.31;100.00
14232;BME280;7200;52.194;9.900;2023-04-25T12:12:38;99700.94;;;9.01;100.00
14232;BME280;7200;52.194;9.900;2023-04-25T12:17:36;99812.94;;;8.38;100.00
14232;BME280;7200;52.194;9.900;2023-04-25T12:20:24;99855.41;;;8.75;100.00
14232;BME280;7200;52.194;9.900;2023-04-25T12:22:51;99820.41;;;8.73;100.00
14232;BME280;7200;52.194;9.900;2023-04-25T12:28:21;99869.09;;;9.07;100.00
14232;BME280;7200;52.194;9.900;2023-04-25T12:31:07;99885.47;;;9.58;100.00
14232;BME280;7200;52.194;9.900;2023-04-25T12:33:36;99860.78;;;9.60;100.00
14232;BME280;7200;52.194;9.900;2023-04-25T12:36:03;99855.22;;;9.88;100.00
14232;BME280;7200;52.194;9.900;2023-04-25T12:38:37;99788.56;;;9.86;100.00
14232;BME280;7200;52.194;9.900;2023-04-25T12:41:03;99796.50;;;10.45;100.00
14232;BME280;7200;52.194;9.900;2023-04-25T12:43:28;99803.09;;;10.55;100.00
14232;BME280;7200;52.194;9.900;2023-04-25T12:45:55;99757.22;;;10.20;100.00
14232;BME280;7200;52.194;9.900;2023-04-25T12:48:21;99734.09;;;10.45;100.00
14232;BME280;7200;52.194;9.900;2023-04-25T12:50:47;99679.50;;;10.47;100.00
14232;BME280;7200;52.194;9.900;2023-04-25T12:53:20;99677.69;;;11.02;100.00
14232;BME280;7200;52.194;9.900;2023-04-25T12:55:45;99609.06;;;11.19;100.00
14232;BME280;7200;52.194;9.900;2023-04-25T12:58:12;99472.75;;;11.01;98.34
14232;BME280;7200;52.194;9.900;2023-04-25T13:00:38;99450.06;;;10.81;97.38
14232;BME280;7200;52.194;9.900;2023-04-25T13:03:03;99530.03;;;11.32;96.82
14232;BME280;7200;52.194;9.900;2023-04-25T13:05:30;99607.81;;;11.76;96.75
14232;BME280;7200;52.194;9.900;2023-04-25T13:07:56;99497.81;;;11.41;95.08
14232;BME280;7200;52.194;9.900;2023-04-25T13:10:21;99546.59;;;11.52;94.49
14232;BME280;7200;52.194;9.900;2023-04-25T13:12:47;99473.19;;;11.09;94.32